createdAt,value
2018-04-25T00:46:32.409Z,16.02
2018-04-25T00:49:05.669Z,16.02
2018-04-25T00:51:38.936Z,15.98
2018-04-25T00:54:12.956Z,15.96
2018-04-25T00:56:46.997Z,15.92
2018-04-25T00:59:20.252Z,15.89
2018-04-25T02:32:53.425Z,14.94
2018-04-25T02:35:27.451Z,14.91
2018-04-25T02:38:00.736Z,14.92
2018-04-25T02:40:34.759Z,14.92
2018-04-25T02:43:08.058Z,14.89
2018-04-25T03:47:31.283Z,14.54
2018-04-25T03:50:05.311Z,14.50
2018-04-25T03:52:38.583Z,14.46
2018-04-25T03:55:12.599Z,14.40
2018-04-25T03:57:45.913Z,14.34
2018-04-25T04:32:52.563Z,14.24
2018-04-25T04:35:25.823Z,14.26
2018-04-25T04:37:59.099Z,14.31
2018-04-25T04:40:32.358Z,14.35
2018-04-25T04:43:06.441Z,14.41
2018-04-25T04:45:39.652Z,14.47
2018-04-25T04:48:16.586Z,14.54
2018-04-25T04:50:49.851Z,14.59
2018-04-25T04:53:23.879Z,14.67
2018-04-25T04:55:57.204Z,14.76
2018-04-25T04:58:30.500Z,14.82
2018-04-25T05:01:03.764Z,14.93
2018-04-25T05:03:37.048Z,14.98
2018-04-25T05:06:10.339Z,15.01
2018-04-25T05:08:43.709Z,15.05
2018-04-25T05:11:16.875Z,15.08
2018-04-25T05:13:50.160Z,15.11
2018-04-25T05:16:23.460Z,15.13
2018-04-25T05:18:56.717Z,15.15
2018-04-25T05:21:30.008Z,15.18
2018-04-25T05:24:03.273Z,15.19
2018-04-25T05:26:36.544Z,15.24
2018-04-25T05:29:09.795Z,15.26
2018-04-25T05:31:43.064Z,15.26
2018-04-25T05:34:17.095Z,15.31
2018-04-25T05:36:50.368Z,15.34
2018-04-25T05:39:23.611Z,15.37
2018-04-25T05:41:56.884Z,15.43
2018-04-25T05:44:30.145Z,15.47
2018-04-25T05:47:04.182Z,15.52
2018-04-25T05:49:37.431Z,15.54
2018-04-25T05:52:10.699Z,15.60
2018-04-25T05:54:43.964Z,15.64
2018-04-25T05:57:17.233Z,15.69
2018-04-25T05:59:51.267Z,15.75
2018-04-25T06:02:24.533Z,15.82
2018-04-25T06:04:57.805Z,15.89
2018-04-25T06:07:31.064Z,15.98
2018-04-25T06:10:04.329Z,16.06
2018-04-25T06:12:38.438Z,16.18
2018-04-25T06:15:11.644Z,16.25
2018-04-25T06:17:45.661Z,16.34
2018-04-25T06:20:19.569Z,16.38
2018-04-25T06:22:53.581Z,16.47
2018-04-25T06:25:26.853Z,16.52
2018-04-25T06:28:00.867Z,16.61
2018-04-25T07:03:07.154Z,17.63
2018-04-25T07:05:40.421Z,17.69
2018-04-25T07:08:14.478Z,17.77
2018-04-25T07:10:47.720Z,17.80
2018-04-25T07:13:21.060Z,17.86
2018-04-25T08:01:28.239Z,19.02
2018-04-25T08:04:01.548Z,19.13
2018-04-25T08:06:34.820Z,19.21
2018-04-25T08:09:08.073Z,19.33
2018-04-25T08:11:42.115Z,19.38
2018-04-25T08:14:33.396Z,19.47
2018-04-25T09:02:40.035Z,21.16
2018-04-25T09:05:13.314Z,21.24
2018-04-25T09:07:46.559Z,21.34
2018-04-25T09:10:20.601Z,21.54
2018-04-25T09:12:53.864Z,21.72
2018-04-25T10:00:59.845Z,21.86
2018-04-25T10:03:33.099Z,22.00
2018-04-25T10:06:06.375Z,21.89
2018-04-25T10:08:40.401Z,21.88
2018-04-25T10:11:13.683Z,21.93
2018-04-25T10:13:47.720Z,21.86
2018-04-25T11:01:53.087Z,22.41
2018-04-25T11:04:26.368Z,22.33
2018-04-25T11:07:00.393Z,22.55
2018-04-25T11:09:33.639Z,22.51
2018-04-25T11:12:06.915Z,22.55
2018-04-25T11:14:40.181Z,22.50
2018-04-25T12:02:47.027Z,23.40
2018-04-25T12:05:21.051Z,23.50
2018-04-25T12:07:54.312Z,23.63
2018-04-25T12:10:27.599Z,23.53
2018-04-25T12:13:00.847Z,23.71
2018-04-25T13:01:07.643Z,24.35
2018-04-25T13:03:40.935Z,24.23
2018-04-25T13:06:14.190Z,24.33
2018-04-25T13:08:47.464Z,24.49
2018-04-25T13:11:20.715Z,24.80
2018-04-25T13:13:53.987Z,24.28
2018-04-25T14:02:01.441Z,24.78
2018-04-25T14:04:34.707Z,25.29
2018-04-25T14:07:07.980Z,25.38
2018-04-25T14:09:41.229Z,25.40
2018-04-25T14:12:14.512Z,24.53
2018-04-25T14:14:47.769Z,24.37
2018-04-25T14:46:38.663Z,24.26
2018-04-25T14:49:12.692Z,24.36
2018-04-25T14:51:46.732Z,24.95
2018-04-25T14:54:19.985Z,25.45
2018-04-25T14:56:53.261Z,25.02
2018-04-25T14:59:26.520Z,25.03
2018-04-25T15:31:16.921Z,25.14
2018-04-25T15:33:50.226Z,24.94
2018-04-25T15:36:23.484Z,24.81
2018-04-25T15:38:57.540Z,24.70
2018-04-25T15:41:30.789Z,24.70
2018-04-25T15:44:04.852Z,24.80
2018-04-25T15:46:38.122Z,24.88
2018-04-25T15:49:11.390Z,24.98
2018-04-25T15:51:44.657Z,25.18
2018-04-25T15:54:17.924Z,25.11
2018-04-25T15:56:51.197Z,25.17
2018-04-25T15:59:24.471Z,24.76
2018-04-25T16:01:58.502Z,24.68
2018-04-25T16:04:31.768Z,25.04
2018-04-25T16:07:05.796Z,24.98
2018-04-25T16:09:39.079Z,25.07
2018-04-25T16:12:13.190Z,25.12
2018-04-25T16:14:47.140Z,25.10
2018-04-25T16:17:20.393Z,24.71
2018-04-25T16:19:54.431Z,24.67
2018-04-25T16:22:27.700Z,24.59
2018-04-25T16:25:01.760Z,24.73
2018-04-25T16:27:35.009Z,24.37
2018-04-25T16:30:08.286Z,24.34
2018-04-25T16:32:41.540Z,24.04
2018-04-25T16:35:14.812Z,23.96
2018-04-25T16:37:48.069Z,23.94
2018-04-25T16:40:22.115Z,23.93
2018-04-25T16:42:55.377Z,23.89
2018-04-25T16:45:28.644Z,23.70
2018-04-25T16:48:01.919Z,23.54
2018-04-25T16:50:35.260Z,23.25
2018-04-25T16:53:08.461Z,23.35
2018-04-25T16:55:42.511Z,23.22
2018-04-25T16:58:15.767Z,23.05
2018-04-25T17:00:49.823Z,23.06
2018-04-25T17:03:23.092Z,23.08
2018-04-25T17:05:56.375Z,22.96
2018-04-25T17:08:30.414Z,22.90
2018-04-25T17:11:03.704Z,22.95
2018-04-25T17:13:36.966Z,22.88
2018-04-25T17:16:11.002Z,22.67
2018-04-25T17:18:44.255Z,22.68
2018-04-25T17:21:17.532Z,22.49
2018-04-25T17:23:50.787Z,22.45
2018-04-25T17:26:24.073Z,22.49
2018-04-25T17:28:57.340Z,22.49
2018-04-25T17:31:30.613Z,22.41
2018-04-25T17:34:03.881Z,22.39
2018-04-25T17:36:37.152Z,22.48
2018-04-25T17:39:10.407Z,22.28
2018-04-25T17:41:43.680Z,22.16
2018-04-25T17:44:16.933Z,21.93
2018-04-25T17:46:50.208Z,21.85
2018-04-25T17:49:24.223Z,21.76
2018-04-25T17:51:57.508Z,21.56
2018-04-25T17:54:31.531Z,21.37
2018-04-25T17:57:05.567Z,21.32
2018-04-25T17:59:38.821Z,21.26
2018-04-25T18:02:12.896Z,21.23
2018-04-25T18:04:46.148Z,21.02
2018-04-25T18:07:19.453Z,20.97
2018-04-25T18:09:52.710Z,21.07
2018-04-25T18:12:26.008Z,21.14
2018-04-25T18:15:00.057Z,21.03
2018-04-25T18:17:33.339Z,21.03
2018-04-25T18:20:06.599Z,20.86
2018-04-25T18:22:39.901Z,20.76
2018-04-25T18:25:13.147Z,20.79
2018-04-25T18:27:46.612Z,20.68
2018-04-25T18:30:19.894Z,20.56
2018-04-25T18:32:54.087Z,20.52
2018-04-25T18:35:28.300Z,20.41
2018-04-25T18:38:01.954Z,20.33
2018-04-25T18:40:35.200Z,20.20
2018-04-25T18:43:08.473Z,20.27
2018-04-25T18:45:41.736Z,20.28
2018-04-25T18:48:15.005Z,20.13
2018-04-25T18:50:49.026Z,20.27
2018-04-25T18:53:22.302Z,20.23
2018-04-25T18:55:56.331Z,20.05
2018-04-25T18:58:30.364Z,20.12
2018-04-25T19:01:03.624Z,20.07
2018-04-25T19:03:37.673Z,20.08
2018-04-25T19:06:10.987Z,20.12
2018-04-25T19:08:44.296Z,20.05
2018-04-25T19:11:17.654Z,20.01
2018-04-25T19:13:50.936Z,20.06
2018-04-25T19:16:24.207Z,20.10
2018-04-25T19:18:58.243Z,20.11
2018-04-25T19:21:31.491Z,20.07
2018-04-25T19:24:05.033Z,20.00
2018-04-25T19:26:38.291Z,20.06
2018-04-25T19:29:11.584Z,20.05
2018-04-25T19:31:44.840Z,19.99
2018-04-25T19:34:18.137Z,19.89
2018-04-25T19:36:51.407Z,19.86
2018-04-25T19:39:24.699Z,19.88
2018-04-25T19:41:57.973Z,19.73
2018-04-25T19:44:31.251Z,19.76
2018-04-25T19:47:04.509Z,19.72
2018-04-25T19:49:38.057Z,19.73
2018-04-25T19:52:11.269Z,19.78
2018-04-25T19:54:45.337Z,19.80
2018-04-25T19:57:18.615Z,19.62
2018-04-25T19:59:51.877Z,19.69
2018-04-25T20:02:25.139Z,19.70
2018-04-25T20:04:58.478Z,19.76
2018-04-25T20:07:31.732Z,19.76
2018-04-25T20:10:05.777Z,19.69
2018-04-25T20:12:39.072Z,19.73
2018-04-25T20:15:12.426Z,19.73
2018-04-25T20:17:45.705Z,19.68
2018-04-25T20:20:18.964Z,19.68
2018-04-25T20:22:52.248Z,19.53
2018-04-25T20:25:25.524Z,19.49
2018-04-25T20:27:59.553Z,19.45
2018-04-25T20:30:32.837Z,19.48
2018-04-25T20:33:06.852Z,19.43
2018-04-25T20:35:40.124Z,19.35
2018-04-25T20:38:15.069Z,19.28
2018-04-25T20:40:49.107Z,19.33
2018-04-25T20:43:22.372Z,19.40
2018-04-25T20:45:56.419Z,19.47
2018-04-25T20:48:29.683Z,19.52
2018-04-25T20:51:02.955Z,19.58
2018-04-25T20:53:36.207Z,19.64
2018-04-25T20:56:09.483Z,19.67
2018-04-25T20:58:42.742Z,19.72
2018-04-25T21:01:16.056Z,19.67
2018-04-25T21:03:50.083Z,19.63
2018-04-25T21:06:23.884Z,19.28
2018-04-25T21:08:57.138Z,18.80
2018-04-25T21:11:30.404Z,18.54
2018-04-25T21:14:03.664Z,18.47
2018-04-25T21:16:36.943Z,18.47
2018-04-25T21:19:10.259Z,18.41
2018-04-25T21:21:43.528Z,18.34
2018-04-25T21:24:17.569Z,18.30
2018-04-25T21:26:50.831Z,18.16
2018-04-25T21:29:24.884Z,18.06
2018-04-25T21:31:58.148Z,18.00
2018-04-25T21:34:31.651Z,17.98
2018-04-25T21:37:04.899Z,17.96
2018-04-25T21:39:38.348Z,17.91
2018-04-25T21:42:11.598Z,17.91
2018-04-25T21:44:45.241Z,17.95
2018-04-25T21:47:18.499Z,17.96
2018-04-25T21:49:51.776Z,17.98
2018-04-25T21:52:25.045Z,18.00
2018-04-25T21:54:58.309Z,18.05
2018-04-25T21:57:31.560Z,18.12
2018-04-25T22:00:04.867Z,18.12
2018-04-25T22:02:38.128Z,18.12
2018-04-25T22:05:11.399Z,18.08
2018-04-25T22:07:44.680Z,18.02
2018-04-25T22:10:18.467Z,18.02
2018-04-25T22:12:51.710Z,18.01
2018-04-25T22:15:24.996Z,18.00
2018-04-25T22:17:58.278Z,17.97
2018-04-25T22:20:31.551Z,17.88
2018-04-25T22:23:04.805Z,17.79
2018-04-25T22:25:38.083Z,17.75
2018-04-25T22:28:11.336Z,17.70
2018-04-25T22:30:44.620Z,17.65
2018-04-25T22:33:17.884Z,17.64
2018-04-25T22:35:51.155Z,17.60
2018-04-25T22:38:24.430Z,17.61
2018-04-25T22:40:57.699Z,17.53
2018-04-25T22:43:31.731Z,17.47
2018-04-25T22:46:05.002Z,17.47
2018-04-25T22:48:39.028Z,17.51
2018-04-25T22:51:12.531Z,17.54
2018-04-25T22:53:45.790Z,17.47
2018-04-25T22:56:19.083Z,17.45
2018-04-25T22:58:52.342Z,17.47
2018-04-25T23:01:25.676Z,17.40
2018-04-25T23:03:58.922Z,17.36
2018-04-25T23:06:32.187Z,17.31
2018-04-25T23:09:06.219Z,17.30
2018-04-25T23:11:39.477Z,17.26
2018-04-25T23:14:12.731Z,17.26
